Time;durP1;ratioP1;P1;durP2;ratioP2;P2;SDS_P1;SDS_P2;PMS_P1;PMS_P2;Temp;Humidity;BMP_temperature;BMP_pressure;BME280_temperature;BME280_humidity;BME280_pressure;Samples;Min_cycle;Max_cycle;Signal;HPM_P1;HPM_P2
2023/04/17 00:01:49;;;;;;;0.98;0.93;;;8.70;99.90;;;;;;5015888;28;20681;-71
2023/04/17 00:04:15;;;;;;;0.63;0.63;;;8.70;99.90;;;;;;5016045;28;20625;-71
2023/04/17 00:06:44;;;;;;;2.83;1.87;;;8.70;99.90;;;;;;5015720;28;20267;-72
2023/04/17 00:09:10;;;;;;;3.80;0.85;;;8.60;99.90;;;;;;5014593;28;20675;-71
2023/04/17 00:11:36;;;;;;;1.05;0.95;;;8.60;99.90;;;;;;5015598;28;20610;-71
2023/04/17 00:14:01;;;;;;;5.20;3.90;;;8.70;99.90;;;;;;5015844;28;20179;-72
2023/04/17 00:16:27;;;;;;;1.77;1.23;;;8.70;99.90;;;;;;5015837;28;20564;-70
2023/04/17 00:18:56;;;;;;;0.83;0.80;;;8.60;99.90;;;;;;5015883;28;20576;-70
2023/04/17 00:21:21;;;;;;;1.15;0.93;;;8.60;99.90;;;;;;5015466;28;20175;-72
2023/04/17 00:23:47;;;;;;;3.80;0.80;;;8.50;99.90;;;;;;5015490;28;20203;-71
2023/04/17 00:26:14;;;;;;;1.63;0.63;;;8.40;99.90;;;;;;5015788;28;20601;-72
2023/04/17 00:28:39;;;;;;;2.13;2.03;;;8.30;99.90;;;;;;5014234;28;20171;-71
2023/04/17 00:31:05;;;;;;;1.43;1.33;;;8.40;99.90;;;;;;5015199;28;20194;-72
2023/04/17 00:33:31;;;;;;;2.50;2.30;;;8.40;99.90;;;;;;5015589;28;20240;-72
2023/04/17 00:35:57;;;;;;;1.63;1.52;;;8.40;99.90;;;;;;5015263;28;20659;-71
2023/04/17 00:38:22;;;;;;;1.87;1.77;;;8.50;99.90;;;;;;5013989;28;20183;-71
2023/04/17 00:40:50;;;;;;;1.93;1.83;;;8.50;99.90;;;;;;5015024;28;20171;-71
2023/04/17 00:43:16;;;;;;;0.40;0.40;;;8.60;99.90;;;;;;5015283;28;20195;-71
2023/04/17 00:45:42;;;;;;;5.25;1.20;;;8.50;99.90;;;;;;5013713;28;20191;-72
2023/04/17 00:48:09;;;;;;;2.27;2.17;;;8.40;99.90;;;;;;5015162;28;20699;-71
2023/04/17 00:50:35;;;;;;;0.57;0.57;;;8.40;99.90;;;;;;5014727;28;20398;-71
2023/04/17 00:53:01;;;;;;;0.93;0.93;;;8.20;99.90;;;;;;5014976;28;20167;-72
2023/04/17 00:55:29;;;;;;;0.93;0.93;;;8.30;99.90;;;;;;5014894;28;20198;-72
2023/04/17 00:57:55;;;;;;;0.95;0.95;;;8.30;99.90;;;;;;5014285;28;20663;-71
2023/04/17 01:00:21;;;;;;;1.38;1.38;;;8.30;99.90;;;;;;5014658;28;20182;-69
2023/04/17 01:02:48;;;;;;;0.93;0.93;;;8.30;99.90;;;;;;5014928;28;20644;-72
2023/04/17 01:05:13;;;;;;;2.05;0.85;;;8.30;99.90;;;;;;5014648;28;20461;-70
2023/04/17 01:07:40;;;;;;;2.60;1.30;;;8.40;99.90;;;;;;5014762;28;20213;-72
2023/04/17 01:10:06;;;;;;;0.93;0.60;;;8.30;99.90;;;;;;5014601;28;20174;-72
2023/04/17 01:12:32;;;;;;;5.10;2.53;;;8.30;99.90;;;;;;5014695;28;20538;-71
2023/04/17 01:14:57;;;;;;;1.30;1.10;;;8.40;99.90;;;;;;5014686;28;20202;-72
2023/04/17 01:17:27;;;;;;;4.13;1.63;;;8.30;99.90;;;;;;5014622;28;20259;-72
2023/04/17 01:19:53;;;;;;;1.15;0.75;;;8.40;99.90;;;;;;5014575;28;20225;-71
2023/04/17 01:22:19;;;;;;;0.50;0.50;;;8.40;99.90;;;;;;5014216;28;20650;-71
2023/04/17 01:24:45;;;;;;;1.30;1.30;;;8.40;99.90;;;;;;5014432;28;20191;-71
2023/04/17 01:27:14;;;;;;;0.50;0.50;;;8.40;99.90;;;;;;5014335;28;20566;-70
2023/04/17 01:29:41;;;;;;;2.40;0.80;;;8.40;99.90;;;;;;5014539;28;20575;-70
2023/04/17 01:32:07;;;;;;;1.05;0.95;;;8.40;99.90;;;;;;5014177;28;20548;-70
2023/04/17 01:34:33;;;;;;;0.93;0.93;;;8.40;99.90;;;;;;5014418;28;20175;-71
2023/04/17 01:36:59;;;;;;;2.50;0.60;;;8.50;99.90;;;;;;5014462;28;20198;-72
2023/04/17 01:39:25;;;;;;;1.53;1.43;;;8.40;99.90;;;;;;5014492;28;20199;-72
2023/04/17 01:41:51;;;;;;;1.70;1.20;;;8.50;99.90;;;;;;5014044;28;20175;-72
2023/04/17 01:44:17;;;;;;;1.80;1.70;;;8.70;99.90;;;;;;5014061;28;20199;-71
2023/04/17 01:46:43;;;;;;;1.20;1.10;;;8.70;99.90;;;;;;5013876;28;20213;-70
2023/04/17 01:49:09;;;;;;;3.03;1.33;;;8.80;99.90;;;;;;5014504;28;20413;-70
2023/04/17 01:51:34;;;;;;;2.00;0.70;;;8.80;99.90;;;;;;5013919;28;20170;-71
2023/04/17 01:54:00;;;;;;;2.20;1.13;;;8.80;99.90;;;;;;5013981;28;20179;-71
2023/04/17 01:56:26;;;;;;;0.80;0.80;;;8.80;99.90;;;;;;5013789;28;20198;-71
2023/04/17 01:58:51;;;;;;;2.83;2.07;;;8.80;99.80;;;;;;5013852;28;20565;-71
2023/04/17 02:01:17;;;;;;;1.53;1.43;;;8.80;99.80;;;;;;5013609;28;20186;-71
2023/04/17 02:03:43;;;;;;;0.50;0.50;;;8.70;99.90;;;;;;5013722;28;20460;-71
2023/04/17 02:06:08;;;;;;;0.60;0.60;;;8.70;99.90;;;;;;5013819;28;20598;-70
2023/04/17 02:08:34;;;;;;;1.00;1.00;;;8.60;99.90;;;;;;5013521;28;20659;-70
2023/04/17 02:11:00;;;;;;;0.80;0.80;;;8.70;99.90;;;;;;5013100;28;20174;-70
2023/04/17 02:13:25;;;;;;;0.70;0.70;;;8.80;99.60;;;;;;5013854;28;20597;-71
2023/04/17 02:15:51;;;;;;;0.40;0.40;;;8.80;99.60;;;;;;5013617;28;20742;-72
2023/04/17 02:18:17;;;;;;;0.83;0.53;;;8.90;99.40;;;;;;5013614;28;20164;-71
2023/04/17 02:20:42;;;;;;;0.90;0.90;;;8.80;99.40;;;;;;5013550;28;20234;-71
2023/04/17 02:23:08;;;;;;;1.43;1.33;;;8.80;99.40;;;;;;5013777;28;20195;-70
2023/04/17 02:25:34;;;;;;;0.73;0.73;;;8.90;99.40;;;;;;5013654;28;20234;-71
2023/04/17 02:28:00;;;;;;;0.97;0.83;;;9.00;99.00;;;;;;5013912;28;20168;-72
2023/04/17 02:30:26;;;;;;;0.40;0.40;;;8.90;99.00;;;;;;5013386;28;20425;-70
2023/04/17 02:32:53;;;;;;;0.40;0.40;;;9.00;99.00;;;;;;5013386;28;20187;-71
2023/04/17 02:35:23;;;;;;;0.40;0.40;;;8.90;99.50;;;;;;5013289;28;20195;-72
2023/04/17 02:37:49;;;;;;;0.70;0.70;;;8.90;99.80;;;;;;5013454;28;20229;-70
2023/04/17 02:40:15;;;;;;;0.60;0.60;;;8.80;99.70;;;;;;5013326;28;20168;-70
2023/04/17 02:42:41;;;;;;;0.80;0.63;;;8.70;99.40;;;;;;5013357;28;20609;-70
2023/04/17 02:45:08;;;;;;;1.55;1.45;;;8.70;99.50;;;;;;5013175;28;20213;-71
2023/04/17 02:47:33;;;;;;;0.60;0.60;;;8.80;99.50;;;;;;5013332;28;20191;-72
2023/04/17 02:49:59;;;;;;;0.40;0.40;;;8.80;99.40;;;;;;5013282;28;20178;-70
2023/04/17 02:52:29;;;;;;;0.30;0.30;;;8.80;99.30;;;;;;5013192;28;20567;-72
2023/04/17 02:54:55;;;;;;;0.57;0.57;;;8.90;99.50;;;;;;5013672;28;20775;-71
2023/04/17 02:57:22;;;;;;;0.70;0.70;;;9.00;99.30;;;;;;5013173;28;20263;-72
2023/04/17 02:59:48;;;;;;;0.40;0.40;;;9.00;99.30;;;;;;5013141;28;20174;-70
2023/04/17 03:02:13;;;;;;;0.80;0.80;;;9.00;99.20;;;;;;5013093;28;20195;-72
2023/04/17 03:04:39;;;;;;;1.30;0.80;;;9.10;99.20;;;;;;5013323;28;20175;-71
2023/04/17 03:07:05;;;;;;;0.70;0.70;;;9.20;98.90;;;;;;5013271;28;20223;-71
2023/04/17 03:09:32;;;;;;;0.53;0.53;;;9.20;98.60;;;;;;5013237;28;20175;-70
2023/04/17 03:11:58;;;;;;;0.45;0.45;;;9.10;98.70;;;;;;5013041;28;20399;-70
2023/04/17 03:14:24;;;;;;;1.40;1.25;;;9.10;99.00;;;;;;5013475;28;20262;-71
2023/04/17 03:16:49;;;;;;;0.60;0.40;;;9.10;99.20;;;;;;5013054;28;20290;-70
2023/04/17 03:19:15;;;;;;;0.30;0.30;;;9.00;99.10;;;;;;5013097;28;20175;-71
2023/04/17 03:21:41;;;;;;;0.90;0.70;;;9.10;99.30;;;;;;5015176;28;20171;-72
2023/04/17 03:24:06;;;;;;;0.30;0.30;;;9.10;99.30;;;;;;5016780;28;20205;-71
2023/04/17 03:26:32;;;;;;;0.30;0.30;;;9.10;99.10;;;;;;5016666;28;20306;-71
2023/04/17 03:28:58;;;;;;;0.57;0.57;;;9.00;99.10;;;;;;5015520;28;20179;-72
2023/04/17 03:31:24;;;;;;;0.80;0.77;;;8.90;98.90;;;;;;5015005;28;20549;-72
2023/04/17 03:33:50;;;;;;;0.60;0.60;;;8.90;98.80;;;;;;5015277;28;20643;-70
2023/04/17 03:36:16;;;;;;;0.40;0.40;;;8.90;98.80;;;;;;5016556;28;20211;-70
2023/04/17 03:38:42;;;;;;;0.50;0.50;;;8.90;98.70;;;;;;5016569;28;20176;-70
2023/04/17 03:41:09;;;;;;;0.40;0.40;;;8.90;98.80;;;;;;5016300;28;20666;-69
2023/04/17 03:43:34;;;;;;;1.15;0.52;;;9.00;98.80;;;;;;5016247;28;20725;-70
2023/04/17 03:46:00;;;;;;;0.80;0.80;;;9.00;98.50;;;;;;5016165;28;20231;-71
2023/04/17 03:48:26;;;;;;;1.13;0.87;;;9.00;98.50;;;;;;5016330;28;20481;-72
2023/04/17 03:50:52;;;;;;;0.37;0.37;;;9.10;98.70;;;;;;5016041;28;20413;-72
2023/04/17 03:53:18;;;;;;;3.10;1.33;;;9.10;98.90;;;;;;5016048;28;20636;-70
2023/04/17 03:55:43;;;;;;;1.33;0.87;;;9.00;99.10;;;;;;5015807;28;20199;-70
2023/04/17 03:58:09;;;;;;;0.40;0.40;;;9.00;99.30;;;;;;5016093;28;20932;-70
2023/04/17 04:00:36;;;;;;;0.30;0.30;;;9.10;99.50;;;;;;5015851;28;20262;-70
2023/04/17 04:03:02;;;;;;;0.85;0.82;;;8.70;99.10;;;;;;5016167;28;20198;-71
2023/04/17 04:05:28;;;;;;;0.40;0.40;;;8.60;99.40;;;;;;5015964;28;20192;-70
2023/04/17 04:07:54;;;;;;;0.50;0.50;;;8.70;99.80;;;;;;5015981;28;20164;-70
2023/04/17 04:10:20;;;;;;;0.50;0.40;;;8.60;99.40;;;;;;5015588;28;20179;-72
2023/04/17 04:12:46;;;;;;;0.60;0.50;;;8.60;99.60;;;;;;5015903;28;20179;-71
2023/04/17 04:15:11;;;;;;;0.93;0.70;;;8.60;99.60;;;;;;5015661;28;20682;-71
2023/04/17 04:17:37;;;;;;;0.63;0.63;;;8.60;99.60;;;;;;5015701;28;20418;-70
2023/04/17 04:20:04;;;;;;;0.40;0.40;;;8.70;99.30;;;;;;5015667;28;20182;-71
2023/04/17 04:22:29;;;;;;;0.30;0.30;;;8.70;99.10;;;;;;5015614;28;20175;-71
2023/04/17 04:24:56;;;;;;;0.30;0.30;;;8.80;98.90;;;;;;5015526;28;20238;-71
2023/04/17 04:27:22;;;;;;;0.70;0.60;;;8.90;98.90;;;;;;5015610;28;20160;-72
2023/04/17 04:29:48;;;;;;;0.73;0.73;;;8.90;98.80;;;;;;5015544;28;20499;-71
2023/04/17 04:32:15;;;;;;;0.57;0.50;;;8.90;99.10;;;;;;5014480;28;20591;-71
2023/04/17 04:34:43;;;;;;;0.40;0.40;;;8.90;99.40;;;;;;5015343;28;20180;-71
2023/04/17 04:37:12;;;;;;;0.47;0.47;;;8.90;99.20;;;;;;5015305;28;20171;-71
2023/04/17 04:39:38;;;;;;;0.50;0.50;;;8.90;98.90;;;;;;5014012;28;20277;-71
2023/04/17 04:42:04;;;;;;;0.80;0.80;;;8.90;99.00;;;;;;5015232;28;20255;-71
2023/04/17 04:44:31;;;;;;;0.40;0.40;;;8.90;99.10;;;;;;5015124;28;20204;-71
2023/04/17 04:46:56;;;;;;;0.40;0.40;;;8.90;98.80;;;;;;5013936;28;20172;-72
2023/04/17 04:49:22;;;;;;;0.93;0.83;;;8.90;98.80;;;;;;5013675;28;20523;-69
2023/04/17 04:51:48;;;;;;;0.50;0.50;;;8.90;98.90;;;;;;5014888;28;20179;-70
2023/04/17 04:54:13;;;;;;;0.30;0.30;;;8.90;99.00;;;;;;5015189;28;20533;-70
2023/04/17 04:56:42;;;;;;;1.60;1.33;;;8.90;99.00;;;;;;5014993;28;20199;-71
2023/04/17 04:59:07;;;;;;;5.18;0.90;;;8.80;99.60;;;;;;5015144;28;20174;-72
2023/04/17 05:01:34;;;;;;;0.50;0.50;;;8.80;99.80;;;;;;5014724;28;20514;-71
2023/04/17 05:04:00;;;;;;;0.85;0.85;;;8.80;99.60;;;;;;5014580;28;20253;-70
2023/04/17 05:06:26;;;;;;;1.47;1.37;;;8.80;99.70;;;;;;5014746;28;20199;-70
2023/04/17 05:08:52;;;;;;;0.30;0.30;;;8.80;99.40;;;;;;5014817;28;20175;-72
2023/04/17 05:11:18;;;;;;;0.50;0.50;;;8.90;99.80;;;;;;5014777;28;20211;-71
2023/04/17 05:13:43;;;;;;;0.43;0.43;;;9.00;99.40;;;;;;5014826;28;20168;-71
2023/04/17 05:16:09;;;;;;;1.70;0.93;;;9.00;99.10;;;;;;5014761;28;20488;-71
2023/04/17 05:18:35;;;;;;;1.00;1.00;;;8.90;99.20;;;;;;5014656;28;20667;-71
2023/04/17 05:21:00;;;;;;;1.83;1.73;;;8.80;99.00;;;;;;5014940;28;20182;-69
2023/04/17 05:23:27;;;;;;;0.40;0.40;;;8.90;98.90;;;;;;5014447;28;20286;-71
2023/04/17 05:25:52;;;;;;;0.30;0.30;;;8.90;98.80;;;;;;5014404;28;20183;-71
2023/04/17 05:28:18;;;;;;;0.40;0.40;;;9.00;98.60;;;;;;5014397;28;20178;-71
2023/04/17 05:30:44;;;;;;;0.50;0.50;;;9.10;98.60;;;;;;5014206;28;20293;-70
2023/04/17 05:33:10;;;;;;;0.60;0.60;;;9.00;98.30;;;;;;5014601;28;20225;-70
2023/04/17 05:35:35;;;;;;;2.20;0.50;;;9.20;98.20;;;;;;5014160;28;20612;-71
2023/04/17 05:38:01;;;;;;;0.40;0.40;;;9.10;98.30;;;;;;5014309;28;20210;-72
2023/04/17 05:40:27;;;;;;;0.40;0.40;;;9.20;98.40;;;;;;5014076;28;20568;-70
2023/04/17 05:42:52;;;;;;;0.30;0.30;;;9.20;98.20;;;;;;5014046;28;20282;-70
2023/04/17 05:45:18;;;;;;;1.17;0.47;;;9.10;98.00;;;;;;5014065;28;20510;-72
2023/04/17 05:47:43;;;;;;;0.90;0.90;;;9.20;98.20;;;;;;5014069;28;20187;-70
2023/04/17 05:50:09;;;;;;;1.00;0.47;;;9.30;98.30;;;;;;5013891;28;20167;-70
2023/04/17 05:52:35;;;;;;;3.03;0.60;;;9.30;98.10;;;;;;5014063;28;20190;-71
2023/04/17 05:55:02;;;;;;;0.70;0.70;;;9.40;98.20;;;;;;5013892;28;20426;-71
2023/04/17 05:57:28;;;;;;;0.30;0.30;;;9.30;98.90;;;;;;5013992;28;20168;-71
2023/04/17 05:59:53;;;;;;;0.50;0.50;;;9.20;98.30;;;;;;5013951;28;20563;-70
2023/04/17 06:02:19;;;;;;;0.40;0.40;;;9.20;98.70;;;;;;5013652;28;20247;-72
2023/04/17 06:04:45;;;;;;;0.90;0.90;;;8.90;99.10;;;;;;5013812;28;20179;-70
2023/04/17 06:07:11;;;;;;;0.40;0.40;;;8.90;99.60;;;;;;5014005;28;20438;-70
2023/04/17 06:09:37;;;;;;;1.07;1.07;;;9.00;99.50;;;;;;5013609;28;20406;-71
2023/04/17 06:12:06;;;;;;;0.40;0.40;;;9.20;98.70;;;;;;5013632;28;20175;-70
2023/04/17 06:14:32;;;;;;;0.90;0.85;;;9.00;98.60;;;;;;5013724;28;20222;-70
2023/04/17 06:16:57;;;;;;;1.13;1.13;;;8.90;98.40;;;;;;5013608;28;20620;-70
2023/04/17 06:19:23;;;;;;;1.57;1.43;;;8.70;98.80;;;;;;5013647;28;20402;-71
2023/04/17 06:21:49;;;;;;;0.30;0.30;;;8.70;99.20;;;;;;5013578;28;20172;-71
2023/04/17 06:24:15;;;;;;;0.40;0.40;;;8.80;99.30;;;;;;5013602;28;20206;-71
2023/04/17 06:26:40;;;;;;;2.72;0.80;;;9.00;99.30;;;;;;5013624;28;20535;-70
2023/04/17 06:29:07;;;;;;;0.60;0.60;;;9.10;98.60;;;;;;5013712;28;20276;-70
2023/04/17 06:31:33;;;;;;;0.70;0.70;;;9.00;98.50;;;;;;5013233;28;20196;-71
2023/04/17 06:33:58;;;;;;;0.77;0.77;;;9.30;98.80;;;;;;5012285;28;20179;-70
2023/04/17 06:36:25;;;;;;;0.57;0.57;;;9.60;98.70;;;;;;5013363;28;20187;-70
2023/04/17 06:38:51;;;;;;;0.82;0.82;;;9.80;97.80;;;;;;5013385;28;20168;-70
2023/04/17 06:41:17;;;;;;;0.40;0.40;;;9.90;97.50;;;;;;5011974;28;20182;-70
2023/04/17 06:43:42;;;;;;;0.40;0.40;;;10.10;96.80;;;;;;5013399;28;20199;-71
2023/04/17 06:46:08;;;;;;;0.50;0.50;;;10.20;96.00;;;;;;5013370;28;20187;-71
2023/04/17 06:48:34;;;;;;;2.10;0.77;;;10.20;96.00;;;;;;5013266;28;20632;-72
2023/04/17 06:50:59;;;;;;;0.30;0.30;;;10.30;95.00;;;;;;5013124;28;20671;-71
2023/04/17 06:53:25;;;;;;;1.00;1.00;;;10.50;95.10;;;;;;5011859;28;20667;-70
2023/04/17 06:55:52;;;;;;;0.40;0.40;;;10.50;95.00;;;;;;5014185;28;20184;-72
2023/04/17 06:58:18;;;;;;;0.60;0.60;;;10.40;95.00;;;;;;5017341;28;20183;-72
2023/04/17 07:00:44;;;;;;;0.30;0.30;;;10.40;94.90;;;;;;5017049;28;20168;-71
2023/04/17 07:03:10;;;;;;;0.40;0.40;;;10.40;94.70;;;;;;5017081;28;20667;-70
2023/04/17 07:05:35;;;;;;;0.30;0.30;;;10.40;95.10;;;;;;5017095;28;20184;-70
2023/04/17 07:08:01;;;;;;;9.93;1.23;;;10.70;96.40;;;;;;5016908;28;20670;-70
2023/04/17 07:10:27;;;;;;;0.30;0.30;;;11.10;95.40;;;;;;5016260;28;20654;-71
2023/04/17 07:12:53;;;;;;;0.80;0.80;;;11.50;94.80;;;;;;5017610;28;20172;-70
2023/04/17 07:15:19;;;;;;;0.60;0.60;;;12.00;94.00;;;;;;5017621;28;20520;-70
2023/04/17 07:17:52;;;;;;;0.60;0.60;;;12.30;92.70;;;;;;5016526;28;20425;-69
2023/04/17 07:20:18;;;;;;;1.47;0.70;;;12.50;92.00;;;;;;5016956;28;20408;-70
2023/04/17 07:22:44;;;;;;;0.40;0.40;;;12.70;91.80;;;;;;5017010;28;20452;-70
2023/04/17 07:25:10;;;;;;;0.40;0.40;;;13.00;91.60;;;;;;5016792;28;20520;-70
2023/04/17 07:27:39;;;;;;;0.40;0.40;;;13.20;91.10;;;;;;5016245;28;20171;-70
2023/04/17 07:30:08;;;;;;;1.00;0.90;;;13.40;90.40;;;;;;5015923;28;20177;-70
2023/04/17 07:32:35;;;;;;;0.40;0.40;;;13.10;86.80;;;;;;5015173;28;20452;-71
2023/04/17 07:35:00;;;;;;;0.77;0.77;;;12.60;87.90;;;;;;5016211;28;20510;-71
2023/04/17 07:37:26;;;;;;;2.00;0.90;;;12.40;89.30;;;;;;5014513;28;20903;-75
2023/04/17 07:39:52;;;;;;;0.80;0.80;;;11.90;90.10;;;;;;5015834;28;20195;-72
2023/04/17 07:42:18;;;;;;;0.70;0.70;;;11.50;91.00;;;;;;5015655;28;20168;-72
2023/04/17 07:44:46;;;;;;;0.97;0.70;;;11.30;91.60;;;;;;5015186;28;20539;-72
2023/04/17 07:47:11;;;;;;;0.95;0.95;;;10.90;92.30;;;;;;5015362;28;20163;-73
2023/04/17 07:49:39;;;;;;;0.40;0.40;;;10.90;92.60;;;;;;5015332;28;20172;-73
2023/04/17 07:52:05;;;;;;;0.40;0.40;;;10.90;92.80;;;;;;5015536;28;20174;-72
2023/04/17 07:54:31;;;;;;;0.50;0.50;;;10.90;92.70;;;;;;5016699;28;20176;-72
2023/04/17 07:57:01;;;;;;;0.90;0.90;;;10.90;92.60;;;;;;5016196;28;20460;-73
2023/04/17 07:59:27;;;;;;;1.10;0.77;;;10.90;92.70;;;;;;5015868;28;20171;-70
2023/04/17 08:01:53;;;;;;;0.60;0.60;;;11.20;93.20;;;;;;5020169;28;20194;-72
2023/04/17 08:04:18;;;;;;;1.13;1.13;;;11.40;92.30;;;;;;5206412;22;20490;-70
2023/04/17 08:06:44;;;;;;;0.87;0.50;;;11.20;91.70;;;;;;5014073;28;20627;-69
2023/04/17 08:09:10;;;;;;;1.33;1.13;;;11.10;92.80;;;;;;5014028;28;20175;-68
2023/04/17 08:11:37;;;;;;;1.73;1.23;;;11.30;92.40;;;;;;5013319;28;20245;-69
2023/04/17 08:14:03;;;;;;;0.93;0.93;;;11.50;91.60;;;;;;5018085;28;20188;-70
2023/04/17 08:16:28;;;;;;;0.77;0.73;;;11.50;91.60;;;;;;5024529;28;20414;-68
2023/04/17 08:18:54;;;;;;;0.57;0.57;;;11.50;92.20;;;;;;5015134;28;20172;-69
2023/04/17 08:21:20;;;;;;;1.23;1.13;;;11.70;92.10;;;;;;5015750;28;20218;-71
2023/04/17 08:23:46;;;;;;;0.40;0.40;;;11.60;91.70;;;;;;5015932;28;20250;-70
2023/04/17 08:40:45;;;;;;;0.87;0.50;;;12.80;91.00;;;;;;5014819;28;20473;-68
2023/04/17 08:43:19;;;;;;;1.03;0.60;;;12.70;89.00;;;;;;5015275;28;20522;-71
2023/04/17 08:45:54;;;;;;;0.93;0.50;;;12.30;89.40;;;;;;5013729;28;20900;-72
2023/04/17 08:48:21;;;;;;;0.60;0.60;;;12.20;90.60;;;;;;5015709;28;20403;-70
2023/04/17 08:50:49;;;;;;;0.50;0.50;;;12.10;89.60;;;;;;5014853;28;20408;-71
2023/04/17 08:53:16;;;;;;;0.43;0.43;;;11.80;90.10;;;;;;5015185;28;20808;-72
2023/04/17 08:55:43;;;;;;;0.40;0.40;;;11.60;90.50;;;;;;5014688;28;20410;-72
2023/04/17 08:58:09;;;;;;;1.37;0.70;;;12.00;90.90;;;;;;5015060;28;20810;-72
2023/04/17 09:00:35;;;;;;;0.40;0.40;;;12.60;90.80;;;;;;5015137;28;20413;-71
2023/04/17 09:03:03;;;;;;;0.57;0.57;;;12.90;90.20;;;;;;5015517;28;20199;-73
2023/04/17 09:05:35;;;;;;;0.77;0.77;;;13.50;91.00;;;;;;5014739;28;20457;-75
2023/04/17 09:08:24;;;;;;;0.50;0.50;;;14.80;88.20;;;;;;5013878;28;20861;-73
2023/04/17 09:10:52;;;;;;;0.50;0.40;;;16.20;83.80;;;;;;5015005;28;20429;-73
2023/04/17 09:13:20;;;;;;;0.40;0.40;;;16.60;77.20;;;;;;5015319;28;20406;-73
2023/04/17 09:16:01;;;;;;;0.70;0.70;;;16.30;78.60;;;;;;5015114;28;20941;-74
2023/04/17 09:18:31;;;;;;;0.50;0.50;;;15.50;76.80;;;;;;5014450;28;20813;-72
2023/04/17 09:20:58;;;;;;;0.50;0.50;;;14.90;82.10;;;;;;5014768;28;20433;-72
2023/04/17 09:23:28;;;;;;;0.40;0.40;;;14.50;81.10;;;;;;5014951;28;20469;-73
2023/04/17 09:26:08;;;;;;;0.40;0.40;;;14.00;82.10;;;;;;5013219;28;20411;-73
2023/04/17 09:28:34;;;;;;;0.40;0.40;;;13.20;83.20;;;;;;5014959;28;20410;-72
2023/04/17 09:31:05;;;;;;;0.40;0.40;;;12.70;84.40;;;;;;5014389;28;20842;-71
2023/04/17 09:33:31;;;;;;;0.30;0.30;;;12.60;87.00;;;;;;5013366;28;20429;-71
2023/04/17 09:36:20;;;;;;;0.40;0.40;;;12.50;86.60;;;;;;5014797;28;20866;-72
2023/04/17 09:38:46;;;;;;;0.43;0.43;;;12.60;88.10;;;;;;5014115;28;20416;-73
2023/04/17 09:41:29;;;;;;;0.40;0.40;;;12.80;85.90;;;;;;5014046;28;20430;-71
2023/04/17 09:44:00;;;;;;;0.80;0.63;;;12.70;87.00;;;;;;5013727;28;20207;-71
2023/04/17 09:46:36;;;;;;;0.70;0.53;;;12.70;86.10;;;;;;5014297;28;20757;-73
2023/04/17 09:49:09;;;;;;;0.97;0.60;;;12.70;84.20;;;;;;5014129;28;20814;-72
2023/04/17 09:51:35;;;;;;;1.13;0.90;;;12.50;85.70;;;;;;5014090;28;20433;-73
2023/04/17 09:54:05;;;;;;;0.40;0.40;;;12.50;86.60;;;;;;5014045;28;20418;-70
2023/04/17 09:56:32;;;;;;;0.63;0.63;;;12.60;85.60;;;;;;5014122;28;20782;-73
2023/04/17 09:59:03;;;;;;;0.30;0.30;;;12.70;85.60;;;;;;5014664;28;20501;-70
2023/04/17 10:01:34;;;;;;;0.40;0.40;;;12.60;85.10;;;;;;5013966;28;20433;-71
2023/04/17 10:04:02;;;;;;;0.37;0.37;;;12.50;85.30;;;;;;5013646;28;20553;-70
2023/04/17 10:06:30;;;;;;;0.40;0.40;;;12.30;85.30;;;;;;5014111;28;20486;-68
2023/04/17 10:08:55;;;;;;;0.90;0.90;;;11.90;85.80;;;;;;5013881;28;20403;-74
2023/04/17 10:11:23;;;;;;;0.40;0.40;;;11.80;88.60;;;;;;5013688;28;20430;-71
2023/04/17 10:13:56;;;;;;;0.60;0.60;;;11.80;88.20;;;;;;5013917;28;20213;-69
2023/04/17 10:16:34;;;;;;;0.70;0.70;;;12.00;88.80;;;;;;5013699;28;20410;-70
2023/04/17 10:19:25;;;;;;;0.40;0.40;;;12.40;87.40;;;;;;5013831;28;20410;-72
2023/04/17 10:22:16;;;;;;;0.60;0.60;;;13.10;88.00;;;;;;5013288;28;20433;-70
2023/04/17 10:24:46;;;;;;;1.13;0.70;;;14.00;85.80;;;;;;5013445;28;20458;-73
2023/04/17 10:27:24;;;;;;;0.50;0.50;;;14.30;82.50;;;;;;5013842;28;20399;-73
2023/04/17 10:29:57;;;;;;;0.80;0.70;;;14.30;80.00;;;;;;5013342;28;20905;-72
2023/04/17 10:32:25;;;;;;;0.50;0.50;;;13.80;80.00;;;;;;5013250;28;20434;-72
2023/04/17 10:34:54;;;;;;;0.50;0.50;;;13.70;81.40;;;;;;5013325;28;20493;-72
2023/04/17 10:37:22;;;;;;;0.73;0.63;;;13.50;82.40;;;;;;5013484;28;20441;-71
2023/04/17 10:39:58;;;;;;;0.50;0.50;;;13.60;82.00;;;;;;5013750;28;20404;-73
2023/04/17 10:42:25;;;;;;;0.90;0.57;;;13.60;80.30;;;;;;5013475;28;20888;-70
2023/04/17 10:44:56;;;;;;;0.50;0.50;;;13.10;81.00;;;;;;5013113;28;20462;-71
2023/04/17 10:47:28;;;;;;;0.60;0.60;;;12.60;82.00;;;;;;5013613;28;20496;-72
2023/04/17 10:49:57;;;;;;;1.10;1.03;;;12.40;84.20;;;;;;5013574;28;20403;-71
2023/04/17 10:52:33;;;;;;;0.60;0.60;;;12.30;84.70;;;;;;5013140;28;20439;-72
2023/04/17 10:55:07;;;;;;;0.30;0.30;;;12.00;86.30;;;;;;5013368;28;20797;-71
2023/04/17 10:57:50;;;;;;;1.13;0.60;;;12.10;86.70;;;;;;5012195;28;20442;-70
2023/04/17 11:00:17;;;;;;;0.70;0.70;;;12.10;87.10;;;;;;5013224;28;20403;-72
2023/04/17 11:02:44;;;;;;;0.40;0.40;;;12.30;88.50;;;;;;5012894;28;20433;-70
2023/04/17 11:05:11;;;;;;;0.50;0.50;;;12.50;87.60;;;;;;5013199;28;20405;-72
2023/04/17 11:07:37;;;;;;;0.40;0.40;;;12.30;86.70;;;;;;5013309;28;20448;-72
2023/04/17 11:10:06;;;;;;;1.20;1.10;;;11.80;88.50;;;;;;5013414;28;20402;-72
2023/04/17 11:12:32;;;;;;;0.80;0.80;;;12.10;89.10;;;;;;5013303;28;20461;-71
2023/04/17 11:15:07;;;;;;;0.50;0.50;;;12.10;87.10;;;;;;5013170;28;20401;-70
2023/04/17 11:17:33;;;;;;;0.40;0.40;;;12.20;88.80;;;;;;5013226;28;20178;-71
2023/04/17 11:19:59;;;;;;;0.50;0.50;;;12.60;87.40;;;;;;5013293;28;20409;-72
2023/04/17 11:22:26;;;;;;;0.40;0.40;;;12.90;86.00;;;;;;5013063;28;20190;-72
2023/04/17 11:24:51;;;;;;;0.77;0.57;;;12.80;85.30;;;;;;5011720;28;20553;-68
2023/04/17 11:27:17;;;;;;;0.50;0.50;;;12.80;85.10;;;;;;5013060;28;20924;-71
2023/04/17 11:29:43;;;;;;;1.07;0.50;;;13.00;86.70;;;;;;5013234;28;20202;-72
2023/04/17 11:32:11;;;;;;;0.40;0.40;;;13.30;88.10;;;;;;5013049;28;20226;-72
2023/04/17 11:34:37;;;;;;;0.30;0.30;;;13.90;84.80;;;;;;5012839;28;20445;-71
2023/04/17 11:37:03;;;;;;;0.60;0.60;;;14.20;80.90;;;;;;5012809;28;20564;-71
2023/04/17 11:39:30;;;;;;;0.40;0.40;;;14.20;79.50;;;;;;5013551;28;20860;-71
2023/04/17 11:41:56;;;;;;;0.50;0.50;;;14.30;79.00;;;;;;5013810;28;20430;-70
2023/04/17 11:44:23;;;;;;;0.50;0.50;;;14.30;78.60;;;;;;5016121;28;20466;-72
2023/04/17 11:46:57;;;;;;;0.40;0.40;;;14.40;78.30;;;;;;5016759;28;20767;-70
2023/04/17 11:49:31;;;;;;;0.50;0.50;;;14.70;78.50;;;;;;5016586;28;20747;-74
2023/04/17 11:52:01;;;;;;;0.40;0.40;;;14.90;79.40;;;;;;5016291;28;20573;-70
2023/04/17 11:54:27;;;;;;;0.47;0.47;;;15.00;75.00;;;;;;5016184;28;20867;-72
2023/04/17 11:57:05;;;;;;;0.40;0.40;;;15.00;75.50;;;;;;5016204;28;20521;-70
2023/04/17 11:59:34;;;;;;;1.33;0.83;;;15.10;74.00;;;;;;5016551;28;20412;-71
2023/04/17 12:02:01;;;;;;;0.87;0.50;;;14.70;71.30;;;;;;5016561;28;20516;-73
2023/04/17 12:04:32;;;;;;;0.53;0.53;;;14.20;74.20;;;;;;5014654;28;20455;-72
2023/04/17 12:06:58;;;;;;;0.47;0.47;;;14.10;76.00;;;;;;5016348;28;20423;-72
2023/04/17 12:09:30;;;;;;;0.50;0.50;;;14.20;79.70;;;;;;5015940;28;20398;-72
2023/04/17 12:12:01;;;;;;;0.40;0.40;;;14.50;74.10;;;;;;5015709;28;20510;-72
2023/04/17 12:14:27;;;;;;;0.30;0.30;;;15.00;74.70;;;;;;5015301;28;20421;-75
2023/04/17 12:16:53;;;;;;;0.50;0.50;;;15.40;70.50;;;;;;5016443;28;20512;-72
2023/04/17 12:19:18;;;;;;;0.47;0.47;;;15.70;68.50;;;;;;5014857;28;20448;-72
2023/04/17 12:21:47;;;;;;;0.40;0.40;;;15.40;67.90;;;;;;5014398;28;20230;-72
2023/04/17 12:24:14;;;;;;;0.73;0.73;;;15.30;70.10;;;;;;5015200;28;20333;-69
2023/04/17 12:26:49;;;;;;;0.40;0.40;;;15.50;70.50;;;;;;5015488;28;20832;-69
2023/04/17 12:29:16;;;;;;;0.93;0.93;;;15.50;69.00;;;;;;5014488;28;20406;-72
2023/04/17 12:31:43;;;;;;;0.40;0.40;;;15.30;68.20;;;;;;5015688;28;20865;-72
2023/04/17 12:34:09;;;;;;;0.50;0.50;;;15.00;69.30;;;;;;5015338;28;20411;-72
2023/04/17 12:36:35;;;;;;;0.50;0.50;;;14.80;68.60;;;;;;5014262;28;20421;-68
2023/04/17 12:39:00;;;;;;;0.70;0.63;;;14.70;71.80;;;;;;5015534;28;20632;-68
2023/04/17 12:41:26;;;;;;;0.30;0.30;;;14.60;71.80;;;;;;5015333;28;20489;-70
2023/04/17 12:43:53;;;;;;;0.50;0.50;;;14.50;73.60;;;;;;5015025;28;20255;-70
2023/04/17 12:46:19;;;;;;;0.70;0.70;;;14.30;74.10;;;;;;5015439;28;20165;-71
2023/04/17 12:48:45;;;;;;;0.40;0.40;;;14.20;75.80;;;;;;5015280;28;20403;-71
2023/04/17 12:51:11;;;;;;;0.90;0.70;;;14.00;76.20;;;;;;5015066;28;20427;-74
2023/04/17 12:53:36;;;;;;;0.40;0.40;;;13.80;76.90;;;;;;5014644;28;20544;-74
2023/04/17 12:56:02;;;;;;;0.43;0.43;;;13.60;77.60;;;;;;5015224;28;20207;-72
2023/04/17 12:58:28;;;;;;;0.40;0.40;;;13.60;79.60;;;;;;5014565;28;20190;-72
2023/04/17 13:00:54;;;;;;;0.77;0.77;;;13.60;78.50;;;;;;5014022;28;20513;-75
2023/04/17 13:03:19;;;;;;;0.40;0.40;;;13.60;77.20;;;;;;5014505;28;20223;-74
2023/04/17 13:05:46;;;;;;;0.63;0.63;;;13.60;78.10;;;;;;5013416;28;20171;-71
2023/04/17 13:08:13;;;;;;;0.30;0.30;;;13.70;77.00;;;;;;5015018;28;20175;-73